Mankato, MN (56001)

12:40 PM CST on December 19, 2014 (GMT -0600)
Physics & Astronomy | Change Station
CLOSE
Current Station
Personal Weather Station
Location: Mankato, MN
Elevation: 1010 ft
Nearby Weather Stations

Elev 1010 ft 44.15 °N, 94.00 °W | Updated 1 second ago

Overcast
Overcast
30.3 °F
Feels Like 30 °F
N
3.0
Wind Variable Wind from SW
Gusts 8.0 mph

Today
High -- | Low -- °F
--% Chance of Precip.
Yesterday
High -- | Low -- °F
Precip. -- in
7:47 AM 4:39 PM
Waning Crescent, 7% visible
Pressure 30.19 in
Visibility 5.0 miles
Clouds Overcast 800 ft
Windchill 30 °F
Dew Point 27 °F
Humidity 88%
Rainfall 0.00 in
Snow Depth Not available.
UV 1 out of 12
Pollen .10 out of 12
Air Quality Not available.
Flu Activity Not available.
METAR KMKT 191835Z AUTO 17008KT 5SM OVC008 M01/M04 A3019 RMK AO1

More Conditions Fewer Conditions

Pressure 30.19 in
Visibility 5.0 miles
Clouds Overcast 800 ft
Windchill 30 °F
Dew Point 27 °F
Humidity 88%
Rainfall 0.00 in
Snow Depth Not available.
UV 1 out of 12
Pollen .10 out of 12
Air Quality Not available.
Flu Activity Not available.
METAR KMKT 191835Z AUTO 17008KT 5SM OVC008 M01/M04 A3019 RMK AO1

More Conditions Fewer Conditions

10-Day Weather Forecast

Almanac

Astronomy

Dec. 19, 2014 Rise Set
Actual Time
Civil Twilight
Nautical Twilight
Astronomical Twilight
Moon
Length of Visible Light
Length of Day
Tomorrow will be .
, % of the Moon is Illuminated

Today's Extremes

State Highs State Lows

Community

WunderPhotos

Upload Photos

1,779,020 photos uploaded!

WunderBlogs® & News

Nearby

Air Quality

  Air Quality AQ Index Pollutant
Not available.

Snow Depth

Station Depth Elevation

Earthquake Activity

City Distance Mag. Time & Date
Minimum magnitude displayed is 2.5.

Coastal Water Temperatures

Place Temperature

Nearby Weather Stations